createdAt,value
2019-03-11T00:01:18.403Z,14.13
2019-03-11T00:03:44.806Z,10.90
2019-03-11T00:06:11.246Z,7.93
2019-03-11T00:08:37.645Z,9.87
2019-03-11T00:11:04.158Z,4.33
2019-03-11T00:13:30.876Z,5.60
2019-03-11T00:15:57.423Z,7.03
2019-03-11T00:18:23.917Z,6.23
2019-03-11T00:20:50.346Z,4.23
2019-03-11T00:23:16.911Z,3.90
2019-03-11T00:25:43.425Z,4.47
2019-03-11T00:28:09.940Z,6.43
2019-03-11T00:30:36.413Z,3.87
2019-03-11T00:33:03.037Z,5.97
2019-03-11T00:35:29.537Z,3.23
2019-03-11T00:37:56.133Z,5.90
2019-03-11T00:40:22.518Z,6.73
2019-03-11T00:42:48.878Z,5.17
2019-03-11T00:45:15.436Z,6.43
2019-03-11T00:47:42.078Z,2.07
2019-03-11T00:50:10.180Z,5.37
2019-03-11T00:52:36.996Z,5.87
2019-03-11T00:55:10.247Z,5.67
2019-03-11T00:57:36.851Z,5.30
2019-03-11T01:00:29.468Z,8.27
2019-03-11T01:02:56.109Z,8.83
2019-03-11T01:05:22.725Z,12.23
2019-03-11T01:07:49.358Z,9.77
2019-03-11T01:10:15.756Z,8.23
2019-03-11T01:12:42.206Z,10.90
2019-03-11T01:15:10.112Z,10.70
2019-03-11T01:17:36.611Z,5.50
2019-03-11T01:20:07.570Z,10.33
2019-03-11T01:22:34.214Z,10.60
2019-03-11T01:25:00.729Z,9.40
2019-03-11T01:27:27.234Z,10.57
2019-03-11T01:29:53.626Z,7.90
2019-03-11T01:32:20.067Z,10.60
2019-03-11T01:34:46.799Z,17.67
2019-03-11T01:37:13.197Z,10.57
2019-03-11T01:39:39.593Z,9.77
2019-03-11T01:42:05.890Z,9.33
2019-03-11T01:44:32.340Z,12.70
2019-03-11T01:46:58.844Z,10.13
2019-03-11T01:49:25.400Z,9.50
2019-03-11T01:51:51.677Z,10.30
2019-03-11T01:54:18.201Z,11.20
2019-03-11T01:56:44.474Z,14.17
2019-03-11T01:59:10.897Z,8.40
2019-03-11T02:01:37.305Z,10.00
2019-03-11T02:04:03.812Z,10.50
2019-03-11T02:06:30.297Z,9.33
2019-03-11T02:08:56.806Z,7.17
2019-03-11T02:11:23.228Z,8.67
2019-03-11T02:13:49.647Z,11.67
2019-03-11T02:16:16.125Z,9.40
2019-03-11T02:18:42.747Z,8.07
2019-03-11T02:21:09.172Z,9.70
2019-03-11T02:23:35.583Z,9.43
2019-03-11T02:26:02.247Z,8.60
2019-03-11T02:28:28.856Z,11.27
2019-03-11T02:30:55.297Z,10.13
2019-03-11T02:33:21.558Z,7.87
2019-03-11T02:35:47.865Z,5.87
2019-03-11T02:38:14.286Z,11.47
2019-03-11T02:40:40.665Z,8.50
2019-03-11T02:43:07.188Z,7.93
2019-03-11T02:45:33.668Z,9.60
2019-03-11T02:48:00.296Z,6.17
2019-03-11T02:50:26.783Z,9.83
2019-03-11T02:52:53.155Z,6.97
2019-03-11T02:55:19.527Z,9.00
2019-03-11T02:57:46.022Z,7.77
2019-03-11T03:00:17.829Z,8.23
2019-03-11T03:03:04.353Z,7.87
2019-03-11T03:05:32.676Z,6.17
2019-03-11T03:07:59.105Z,9.60
2019-03-11T03:10:25.504Z,8.27
2019-03-11T03:12:52.058Z,11.67
2019-03-11T03:15:18.604Z,12.93
2019-03-11T03:17:45.126Z,12.97
2019-03-11T03:20:14.005Z,10.97
2019-03-11T03:22:40.297Z,9.83
2019-03-11T03:25:09.619Z,8.80
2019-03-11T03:27:36.322Z,11.30
2019-03-11T03:30:19.308Z,10.97
2019-03-11T03:32:46.176Z,10.37
2019-03-11T03:35:12.784Z,10.73
2019-03-11T03:37:39.331Z,10.67
2019-03-11T03:40:09.537Z,12.73
2019-03-11T03:42:36.102Z,12.90
2019-03-11T03:45:21.059Z,10.97
2019-03-11T03:47:47.743Z,10.97
2019-03-11T03:50:14.159Z,9.60
2019-03-11T03:52:40.566Z,8.33
2019-03-11T03:55:07.074Z,9.53
2019-03-11T03:57:33.503Z,13.40
2019-03-11T03:59:59.800Z,10.03
2019-03-11T04:02:26.184Z,8.37
2019-03-11T04:04:52.762Z,14.03
2019-03-11T04:07:19.096Z,14.90
2019-03-11T04:09:45.494Z,9.07
2019-03-11T04:12:11.990Z,8.97
2019-03-11T04:14:38.506Z,7.87
2019-03-11T04:17:05.087Z,10.60
2019-03-11T04:19:31.716Z,8.70
2019-03-11T04:21:58.518Z,10.70
2019-03-11T04:24:25.139Z,9.93
2019-03-11T04:26:52.511Z,6.90
2019-03-11T04:29:18.945Z,8.00
2019-03-11T04:31:45.432Z,9.67
2019-03-11T04:34:11.888Z,14.77
2019-03-11T04:36:38.405Z,13.17
2019-03-11T04:39:05.072Z,7.53
2019-03-11T04:41:31.435Z,11.17
2019-03-11T04:43:57.730Z,12.30
2019-03-11T04:46:24.161Z,10.50
2019-03-11T04:48:50.742Z,11.90
2019-03-11T04:51:17.192Z,12.00
2019-03-11T04:53:43.624Z,9.10
2019-03-11T04:56:10.048Z,9.53
2019-03-11T04:58:36.677Z,11.00
2019-03-11T05:01:03.191Z,14.73
2019-03-11T05:03:29.677Z,9.93
2019-03-11T05:05:56.040Z,11.27
2019-03-11T05:08:22.601Z,11.93
2019-03-11T05:10:49.001Z,8.60
2019-03-11T05:13:15.397Z,11.17
2019-03-11T05:15:41.921Z,10.90
2019-03-11T05:18:08.427Z,7.60
2019-03-11T05:20:34.731Z,10.30
2019-03-11T05:23:01.214Z,9.97
2019-03-11T05:25:27.810Z,9.43
2019-03-11T05:27:54.232Z,8.60
2019-03-11T05:30:20.874Z,8.70
2019-03-11T05:32:47.374Z,6.47
2019-03-11T05:35:13.806Z,10.37
2019-03-11T05:37:40.637Z,9.57
2019-03-11T05:40:17.823Z,7.93
2019-03-11T05:42:44.473Z,7.43
2019-03-11T05:45:14.792Z,9.73
2019-03-11T05:47:41.127Z,14.87
2019-03-11T05:50:15.286Z,14.33
2019-03-11T05:52:42.251Z,10.20
2019-03-11T05:55:10.561Z,10.83
2019-03-11T05:57:36.992Z,9.90
2019-03-11T06:00:16.652Z,15.50
2019-03-11T06:02:43.045Z,12.90
2019-03-11T06:05:09.772Z,12.00
2019-03-11T06:07:36.335Z,11.83
2019-03-11T06:10:11.859Z,10.50
2019-03-11T06:12:38.125Z,14.37
2019-03-11T06:15:13.266Z,12.27
2019-03-11T06:17:39.694Z,15.37
2019-03-11T06:20:14.757Z,11.40
2019-03-11T06:22:41.329Z,9.03
2019-03-11T06:25:07.980Z,6.23
2019-03-11T06:27:34.487Z,5.37
2019-03-11T06:30:01.128Z,7.57
2019-03-11T06:32:27.754Z,7.57
2019-03-11T06:34:54.288Z,9.80
2019-03-11T06:37:20.813Z,9.30
2019-03-11T06:39:47.228Z,9.17
2019-03-11T06:42:13.746Z,9.93
2019-03-11T06:44:40.239Z,13.87
2019-03-11T06:47:06.772Z,12.73
2019-03-11T06:49:33.412Z,11.57
2019-03-11T06:51:59.735Z,11.57
2019-03-11T06:54:26.171Z,12.63
2019-03-11T06:56:52.671Z,10.40
2019-03-11T06:59:19.156Z,10.97
2019-03-11T07:01:45.710Z,13.20
2019-03-11T07:04:12.105Z,14.37
2019-03-11T07:06:38.618Z,14.60
2019-03-11T07:09:06.971Z,7.67
2019-03-11T07:11:33.476Z,12.17
2019-03-11T07:13:59.765Z,11.97
2019-03-11T07:16:26.170Z,8.40
2019-03-11T07:18:52.716Z,12.27
2019-03-11T07:21:19.140Z,14.50
2019-03-11T07:23:45.458Z,11.30
2019-03-11T07:26:11.882Z,11.00
2019-03-11T07:28:38.194Z,12.50
2019-03-11T07:31:04.782Z,13.17
2019-03-11T07:33:31.261Z,10.73
2019-03-11T07:35:57.862Z,14.40
2019-03-11T07:38:24.265Z,7.97
2019-03-11T07:40:50.910Z,10.83
2019-03-11T07:43:17.380Z,9.33
2019-03-11T07:45:44.007Z,11.67
2019-03-11T07:48:10.362Z,15.87
2019-03-11T07:50:36.852Z,11.97
2019-03-11T07:53:03.573Z,12.67
2019-03-11T07:55:30.063Z,16.43
2019-03-11T07:57:56.363Z,17.80
2019-03-11T08:00:22.956Z,15.93
2019-03-11T08:02:49.387Z,17.43
2019-03-11T08:05:15.999Z,14.30
2019-03-11T08:07:42.466Z,15.53
2019-03-11T08:10:20.446Z,15.40
2019-03-11T08:12:46.852Z,15.23
2019-03-11T08:15:14.838Z,16.23
2019-03-11T08:17:41.261Z,22.00
2019-03-11T08:20:10.499Z,15.17
2019-03-11T08:22:36.913Z,16.17
2019-03-11T08:25:06.831Z,18.73
2019-03-11T08:27:33.512Z,16.77
2019-03-11T08:29:59.967Z,16.70
2019-03-11T08:32:26.582Z,16.37
2019-03-11T08:34:52.911Z,14.10
2019-03-11T08:37:19.228Z,16.27
2019-03-11T08:39:45.567Z,16.93
2019-03-11T08:42:12.095Z,21.70
2019-03-11T08:44:38.513Z,16.60
2019-03-11T08:47:05.117Z,12.27
2019-03-11T08:49:31.662Z,17.40
2019-03-11T08:51:58.061Z,14.03
2019-03-11T08:54:24.407Z,13.40
2019-03-11T08:56:50.790Z,14.97
2019-03-11T08:59:17.209Z,16.90
2019-03-11T09:01:43.692Z,17.73
2019-03-11T09:04:10.144Z,17.07
2019-03-11T09:06:36.672Z,13.30
2019-03-11T09:09:05.697Z,12.57
2019-03-11T09:11:32.331Z,17.43
2019-03-11T09:13:58.717Z,16.07
2019-03-11T09:16:25.157Z,15.87
2019-03-11T09:18:51.687Z,13.73
2019-03-11T09:21:18.333Z,14.40
2019-03-11T09:23:44.928Z,22.83
2019-03-11T09:26:11.437Z,15.80
2019-03-11T09:28:37.857Z,14.47
2019-03-11T09:31:04.455Z,13.57
2019-03-11T09:33:30.946Z,18.17
2019-03-11T09:35:57.600Z,18.83
2019-03-11T09:38:23.989Z,21.13
2019-03-11T09:40:50.407Z,16.87
2019-03-11T09:43:16.928Z,12.70
2019-03-11T09:45:43.392Z,13.03
2019-03-11T09:48:09.929Z,21.63
2019-03-11T09:50:36.419Z,18.03
2019-03-11T09:53:02.968Z,16.20
2019-03-11T09:55:29.668Z,12.93
2019-03-11T09:57:56.331Z,14.40
2019-03-11T10:00:28.873Z,9.90
2019-03-11T10:02:55.600Z,16.13
2019-03-11T10:05:22.198Z,10.13
2019-03-11T10:07:49.174Z,13.40
2019-03-11T10:10:24.821Z,17.73
2019-03-11T10:12:51.432Z,12.30
2019-03-11T10:15:20.840Z,13.10
2019-03-11T10:17:47.357Z,16.60
2019-03-11T10:20:17.942Z,15.00
2019-03-11T10:22:44.983Z,17.60
2019-03-11T10:25:14.109Z,16.17
2019-03-11T10:27:40.728Z,12.33
2019-03-11T10:30:12.641Z,15.80
2019-03-11T10:32:41.020Z,16.63
2019-03-11T10:35:30.218Z,12.53
2019-03-11T10:37:39.333Z,16.23
2019-03-11T10:40:11.369Z,17.33
2019-03-11T10:42:37.964Z,16.30
2019-03-11T10:45:08.492Z,17.33
2019-03-11T10:47:35.092Z,12.33
2019-03-11T10:50:01.832Z,17.97
2019-03-11T10:52:28.239Z,20.50
2019-03-11T10:54:54.661Z,13.07
2019-03-11T10:57:21.278Z,12.20
2019-03-11T10:59:47.839Z,10.50
2019-03-11T11:02:14.417Z,10.23
2019-03-11T11:04:42.038Z,13.03
2019-03-11T11:07:08.531Z,13.07
2019-03-11T11:09:35.231Z,12.00
2019-03-11T11:12:01.751Z,13.70
2019-03-11T11:14:28.334Z,10.43
2019-03-11T11:16:54.920Z,14.10
2019-03-11T11:19:21.674Z,14.53
2019-03-11T11:21:48.279Z,16.00
2019-03-11T11:24:14.824Z,15.67
2019-03-11T11:26:41.400Z,17.40
2019-03-11T11:29:07.776Z,11.23
2019-03-11T11:31:34.249Z,9.97
2019-03-11T11:34:00.785Z,10.33
2019-03-11T11:36:27.314Z,8.07
2019-03-11T11:38:53.958Z,12.60
2019-03-11T11:41:20.579Z,11.17
2019-03-11T11:43:47.010Z,14.50
2019-03-11T11:46:13.634Z,8.23
2019-03-11T11:48:40.259Z,14.73
2019-03-11T11:51:07.026Z,5.63
2019-03-11T11:53:33.679Z,10.13
2019-03-11T11:56:00.323Z,11.63
2019-03-11T11:58:26.853Z,10.77
2019-03-11T12:00:53.432Z,11.37
2019-03-11T12:03:19.764Z,11.10
2019-03-11T12:05:46.458Z,13.10
2019-03-11T12:08:13.128Z,11.40
2019-03-11T12:10:39.622Z,12.90
2019-03-11T12:13:06.067Z,19.13
2019-03-11T12:15:32.674Z,11.17
2019-03-11T12:17:59.404Z,7.67
2019-03-11T12:20:29.058Z,13.60
2019-03-11T12:22:55.709Z,13.43
2019-03-11T12:25:22.533Z,12.37
2019-03-11T12:27:53.996Z,12.37
2019-03-11T12:30:32.042Z,11.37
2019-03-11T12:32:58.523Z,9.50
2019-03-11T12:35:25.632Z,9.80
2019-03-11T12:37:52.386Z,8.47
2019-03-11T12:40:19.399Z,7.33
2019-03-11T12:42:46.163Z,4.57
2019-03-11T12:45:23.200Z,7.17
2019-03-11T12:47:49.865Z,8.77
2019-03-11T12:50:29.664Z,7.87
2019-03-11T12:52:56.087Z,9.60
2019-03-11T12:55:22.723Z,10.50
2019-03-11T12:57:49.335Z,6.73
2019-03-11T13:00:18.252Z,8.53
2019-03-11T13:02:44.839Z,10.40
2019-03-11T13:05:11.518Z,11.13
2019-03-11T13:07:38.816Z,12.77
2019-03-11T13:10:21.330Z,12.63
2019-03-11T13:12:48.084Z,14.53
2019-03-11T13:15:15.703Z,10.57
2019-03-11T13:17:42.338Z,11.10
2019-03-11T13:20:33.806Z,12.40
2019-03-11T13:23:00.585Z,12.07
2019-03-11T13:25:27.170Z,13.77
2019-03-11T13:27:53.818Z,11.83
2019-03-11T13:30:20.447Z,16.30
2019-03-11T13:32:47.050Z,11.27
2019-03-11T13:35:13.774Z,15.77
2019-03-11T13:37:40.392Z,16.03
2019-03-11T13:40:09.495Z,10.93
2019-03-11T13:42:36.169Z,10.57
2019-03-11T13:45:04.888Z,12.83
2019-03-11T13:47:31.632Z,11.30
2019-03-11T13:49:58.107Z,14.57
2019-03-11T13:52:24.760Z,10.57
2019-03-11T13:54:51.379Z,9.83
2019-03-11T13:57:17.931Z,15.63
2019-03-11T13:59:44.356Z,8.93
2019-03-11T14:02:11.061Z,9.43
2019-03-11T14:04:37.467Z,15.63
2019-03-11T14:07:04.177Z,13.53
2019-03-11T14:09:30.782Z,11.80
2019-03-11T14:11:57.192Z,9.80
2019-03-11T14:14:23.727Z,9.90
2019-03-11T14:16:50.339Z,10.17
2019-03-11T14:19:16.854Z,9.07
2019-03-11T14:21:43.549Z,12.63
2019-03-11T14:24:10.894Z,12.93
2019-03-11T14:26:37.445Z,11.00
2019-03-11T14:29:04.171Z,13.87
2019-03-11T14:31:30.821Z,11.53
2019-03-11T14:33:57.352Z,12.03
2019-03-11T14:36:24.063Z,13.83
2019-03-11T14:38:50.677Z,10.03
2019-03-11T14:41:17.330Z,11.43
2019-03-11T14:43:43.853Z,10.80
2019-03-11T14:46:10.445Z,10.30
2019-03-11T14:48:37.106Z,15.33
2019-03-11T14:51:03.745Z,11.00
2019-03-11T14:53:30.294Z,7.37
2019-03-11T14:55:56.850Z,11.50
2019-03-11T14:58:29.331Z,10.10
2019-03-11T15:00:52.094Z,13.20
2019-03-11T15:03:18.548Z,9.87
2019-03-11T15:05:45.106Z,11.90
2019-03-11T15:08:12.810Z,9.83
2019-03-11T15:10:39.699Z,7.27
2019-03-11T15:13:06.495Z,10.47
2019-03-11T15:15:33.120Z,7.80
2019-03-11T15:17:59.869Z,12.70
2019-03-11T15:20:26.604Z,13.17
2019-03-11T15:22:53.271Z,12.67
2019-03-11T15:25:19.963Z,6.13
2019-03-11T15:27:46.874Z,11.40
2019-03-11T15:30:21.066Z,12.77
2019-03-11T15:32:47.950Z,12.93
2019-03-11T15:35:17.266Z,13.97
2019-03-11T15:37:43.882Z,12.43
2019-03-11T15:40:13.442Z,12.07
2019-03-11T15:42:40.179Z,10.90
2019-03-11T15:45:10.845Z,15.50
2019-03-11T15:47:37.464Z,9.93
2019-03-11T15:50:27.131Z,13.10
2019-03-11T15:52:53.803Z,6.77
2019-03-11T15:55:20.568Z,16.17
2019-03-11T15:57:47.195Z,14.27
2019-03-11T16:00:20.727Z,15.17
2019-03-11T16:02:47.640Z,11.07
2019-03-11T16:05:17.658Z,14.30
2019-03-11T16:07:44.418Z,14.27
2019-03-11T16:10:17.050Z,14.30
2019-03-11T16:12:42.029Z,11.97
2019-03-11T16:15:10.516Z,11.87
2019-03-11T16:17:37.220Z,15.27
2019-03-11T16:20:08.993Z,14.60
2019-03-11T16:22:35.834Z,12.33
2019-03-11T16:25:05.584Z,16.93
2019-03-11T16:27:32.349Z,9.53
2019-03-11T16:29:58.971Z,12.40
2019-03-11T16:32:25.640Z,13.30
2019-03-11T16:34:52.438Z,12.00
2019-03-11T16:37:19.133Z,12.77
2019-03-11T16:39:45.967Z,12.80
2019-03-11T16:42:12.709Z,8.03
2019-03-11T16:44:39.388Z,11.03
2019-03-11T16:47:06.281Z,13.63
2019-03-11T16:49:32.805Z,7.07
2019-03-11T16:51:59.540Z,12.53
2019-03-11T16:54:26.246Z,9.67
2019-03-11T16:56:53.095Z,10.37
2019-03-11T16:59:19.789Z,6.70
2019-03-11T17:01:46.575Z,8.50
2019-03-11T17:04:13.112Z,6.47
2019-03-11T17:06:39.961Z,9.07
2019-03-11T17:09:07.549Z,10.57
2019-03-11T17:11:34.270Z,9.77
2019-03-11T17:14:00.920Z,8.73
2019-03-11T17:16:27.790Z,12.40
2019-03-11T17:18:54.529Z,11.47
2019-03-11T17:21:21.301Z,7.17
2019-03-11T17:23:47.995Z,8.83
2019-03-11T17:26:14.816Z,12.77
2019-03-11T17:28:41.351Z,11.13
2019-03-11T17:31:08.834Z,10.80
2019-03-11T17:33:35.673Z,11.97
2019-03-11T17:36:02.909Z,9.40
2019-03-11T17:38:30.301Z,10.63
2019-03-11T17:40:57.151Z,12.50
2019-03-11T17:43:23.931Z,11.83
2019-03-11T17:45:50.725Z,15.13
2019-03-11T17:48:18.763Z,10.93
2019-03-11T17:50:45.646Z,14.73
2019-03-11T17:53:19.790Z,15.60
2019-03-11T17:55:41.940Z,13.47
2019-03-11T17:58:09.678Z,14.57
2019-03-11T18:00:38.249Z,9.50
2019-03-11T18:03:05.109Z,16.03
2019-03-11T18:05:31.881Z,17.13
2019-03-11T18:07:58.665Z,13.00
2019-03-11T18:10:25.473Z,18.77
2019-03-11T18:12:52.143Z,16.47
2019-03-11T18:15:18.914Z,17.33
2019-03-11T18:17:45.664Z,15.90
2019-03-11T18:20:15.272Z,15.13
2019-03-11T18:22:42.084Z,14.77
2019-03-11T18:25:13.229Z,13.00
2019-03-11T18:27:39.850Z,12.57
2019-03-11T18:30:20.102Z,12.77
2019-03-11T18:32:47.205Z,9.37
2019-03-11T18:35:14.566Z,12.33
2019-03-11T18:37:41.390Z,13.43
2019-03-11T18:40:12.093Z,20.13
2019-03-11T18:42:39.008Z,18.53
2019-03-11T18:45:09.442Z,13.03
2019-03-11T18:47:36.156Z,10.53
2019-03-11T18:50:07.417Z,14.20
2019-03-11T18:52:34.069Z,13.33
2019-03-11T18:55:00.895Z,17.10
2019-03-11T18:57:27.557Z,11.30
2019-03-11T18:59:54.218Z,12.77
2019-03-11T19:02:21.153Z,12.93
2019-03-11T19:04:48.916Z,10.47
2019-03-11T19:07:15.953Z,8.13
2019-03-11T19:09:42.801Z,11.43
2019-03-11T19:12:10.054Z,12.90
2019-03-11T19:14:37.127Z,15.43
2019-03-11T19:17:04.927Z,13.80
2019-03-11T19:19:32.198Z,12.83
2019-03-11T19:21:58.891Z,11.97
2019-03-11T19:24:25.785Z,15.37
2019-03-11T19:26:55.864Z,19.17
2019-03-11T19:29:22.735Z,12.33
2019-03-11T19:31:51.752Z,13.83
2019-03-11T19:34:18.840Z,16.07
2019-03-11T19:36:46.041Z,15.87
2019-03-11T19:39:15.195Z,14.83
2019-03-11T19:41:42.619Z,19.57
2019-03-11T19:44:09.666Z,11.17
2019-03-11T19:46:36.634Z,15.27
2019-03-11T19:49:03.722Z,17.50
2019-03-11T19:51:31.538Z,14.90
2019-03-11T19:53:58.138Z,18.83
2019-03-11T19:56:25.258Z,16.90
2019-03-11T19:58:52.382Z,19.10
2019-03-11T20:01:19.081Z,15.60
2019-03-11T20:03:45.982Z,16.93
2019-03-11T20:06:13.323Z,21.17
2019-03-11T20:08:40.419Z,22.33
2019-03-11T20:11:07.412Z,18.13
2019-03-11T20:13:36.619Z,15.63
2019-03-11T20:16:03.225Z,14.83
2019-03-11T20:18:30.083Z,21.03
2019-03-11T20:20:56.900Z,19.27
2019-03-11T20:23:23.814Z,17.40
2019-03-11T20:25:50.383Z,18.67
2019-03-11T20:28:17.278Z,18.13
2019-03-11T20:30:45.554Z,16.13
2019-03-11T20:33:12.518Z,14.47
2019-03-11T20:35:39.579Z,15.60
2019-03-11T20:38:06.325Z,20.17
2019-03-11T20:40:33.094Z,16.53
2019-03-11T20:42:59.924Z,17.93
2019-03-11T20:45:26.707Z,19.83
2019-03-11T20:47:53.939Z,18.83
2019-03-11T20:50:21.116Z,15.07
2019-03-11T20:52:48.172Z,17.30
2019-03-11T20:55:17.291Z,15.50
2019-03-11T20:57:44.292Z,20.83
2019-03-11T21:00:21.332Z,14.37
2019-03-11T21:02:48.345Z,22.50
2019-03-11T21:05:28.785Z,18.93
2019-03-11T21:07:55.662Z,17.03
2019-03-11T21:10:23.017Z,16.47
2019-03-11T21:12:50.031Z,16.73
2019-03-11T21:15:17.167Z,15.67
2019-03-11T21:17:44.304Z,16.97
2019-03-11T21:20:17.542Z,16.90
2019-03-11T21:22:44.612Z,15.20
2019-03-11T21:25:20.044Z,18.33
2019-03-11T21:27:46.977Z,16.47
2019-03-11T21:30:21.019Z,19.23
2019-03-11T21:32:48.076Z,13.60
2019-03-11T21:35:15.150Z,14.90
2019-03-11T21:37:42.053Z,13.63
2019-03-11T21:40:18.504Z,14.10
2019-03-11T21:42:45.730Z,13.40
2019-03-11T21:45:14.355Z,18.43
2019-03-11T21:47:41.223Z,18.70
2019-03-11T21:50:28.581Z,13.67
2019-03-11T21:52:55.479Z,13.97
2019-03-11T21:55:22.142Z,12.50
2019-03-11T21:57:49.280Z,13.53
2019-03-11T22:00:32.882Z,14.67
2019-03-11T22:02:49.736Z,18.90
2019-03-11T22:05:16.441Z,19.27
2019-03-11T22:07:43.235Z,11.30
2019-03-11T22:10:19.919Z,16.03
2019-03-11T22:12:46.645Z,16.17
2019-03-11T22:15:21.515Z,17.70
2019-03-11T22:17:48.123Z,15.90
2019-03-11T22:20:16.049Z,23.57
2019-03-11T22:22:43.021Z,16.53
2019-03-11T22:25:18.104Z,17.13
2019-03-11T22:27:44.883Z,19.83
2019-03-11T22:30:19.325Z,18.97
2019-03-11T22:32:46.034Z,16.63
2019-03-11T22:35:13.513Z,21.53
2019-03-11T22:37:41.349Z,17.03
2019-03-11T22:40:13.079Z,18.73
2019-03-11T22:42:39.686Z,18.33
2019-03-11T22:45:11.731Z,18.53
2019-03-11T22:47:38.553Z,19.57
2019-03-11T22:50:08.792Z,21.87
2019-03-11T22:52:35.328Z,23.70
2019-03-11T22:55:03.061Z,21.40
2019-03-11T22:57:29.964Z,19.90
2019-03-11T22:59:56.735Z,24.33
2019-03-11T23:02:23.277Z,23.37
2019-03-11T23:04:49.809Z,18.07
2019-03-11T23:07:16.421Z,20.50
2019-03-11T23:09:42.882Z,18.23
2019-03-11T23:12:09.479Z,21.13
2019-03-11T23:14:36.046Z,25.03
2019-03-11T23:17:02.777Z,21.40
2019-03-11T23:19:29.289Z,18.87
2019-03-11T23:21:55.727Z,17.33
2019-03-11T23:24:22.207Z,23.20
2019-03-11T23:26:48.865Z,19.83
2019-03-11T23:29:15.395Z,26.37
2019-03-11T23:31:42.051Z,22.80
2019-03-11T23:34:08.342Z,23.83
2019-03-11T23:36:34.948Z,22.70
2019-03-11T23:39:01.535Z,22.33
2019-03-11T23:41:29.211Z,17.50
2019-03-11T23:43:56.020Z,15.33
2019-03-11T23:46:22.478Z,17.57
2019-03-11T23:48:48.996Z,22.57
2019-03-11T23:51:15.659Z,20.47
2019-03-11T23:53:42.229Z,27.10
2019-03-11T23:56:08.700Z,13.27
2019-03-11T23:58:35.168Z,20.27
